Sea Drift — WDC2818 — position and weather

sailwx.info

Track history (hours):
 
Tides and Currents Weather Stations Pressure Air Temp Water Temp Dewpoint Dewpoint Depression Visibility Wind Speed Wind Dir Waves Ship Positions

Sea Drift

Owner: Marquette Transportation Company Gulf-Inland, LLC, Jefferson, LA. More information available from US FCC via Universal Licensing System and Coast Guard Vessel Documentation Center.

Last reported at 2016-Apr-30 01:31 UTC. Time now 2016-Apr-30 03:22 UTC.
Position N 29°45' W 095°06'.

Length 23 m; draft 3 m.

Type: Towing. MMSI: 366998080.

Date/timePositionNaut miles runAvg speedWind from/ knotsBaromVisibWave heightAir tempDewpointWater temp
2016-Apr-30 01:31N 29°45' W 095°06'4 4.4
2016-Apr-30 00:33N 29°44' W 095°01'6 5.8
2016-Apr-29 23:33N 29°39' W 094°58'6 6.0
2016-Apr-29 22:33N 29°33' W 094°55'7 6.9
2016-Apr-29 21:33N 29°27' W 094°51'65 4.5
2016-Apr-29 07:10N 30°00' W 093°46'3 5.7
2016-Apr-29 06:33N 30°03' W 093°43'13 4.4
2016-Apr-29 03:33N 30°04' W 093°28'4 4.4
2016-Apr-29 02:33N 30°04' W 093°23'2 1.6
2016-Apr-29 01:33N 30°04' W 093°21'0 0.2
2016-Apr-29 00:33N 30°04' W 093°22'3 3.3
2016-Apr-28 23:33N 30°06' W 093°19'3 2.7
2016-Apr-28 22:33N 30°04' W 093°16'0 0.0
2016-Apr-28 21:33N 30°04' W 093°16'1 1.1
2016-Apr-28 20:33N 30°03' W 093°16'4 4.2
2016-Apr-28 19:33N 29°60' W 093°13'4 3.6
2016-Apr-28 18:33N 29°57' W 093°11'5 4.8
2016-Apr-28 17:33N 29°56' W 093°05'16 4.9
2016-Apr-28 14:21N 29°58' W 092°47'4 4.6
2016-Apr-28 13:31N 29°57' W 092°43'102 3.8
2016-Apr-27 10:33N 29°32' W 090°49'0 0.3
2016-Apr-27 09:33N 29°32' W 090°49'3 3.1
2016-Apr-27 08:33N 29°33' W 090°45'4 3.7
2016-Apr-27 07:33N 29°36' W 090°43'3 3.1
2016-Apr-27 06:33N 29°36' W 090°39'4 4.5
2016-Apr-27 05:33N 29°34' W 090°34'5 4.8
2016-Apr-27 04:31N 29°34' W 090°29'25 3.5
2016-Apr-26 21:10N 29°47' W 090°04'3 4.4
2016-Apr-26 20:33N 29°50' W 090°03'3 2.9
2016-Apr-26 19:33N 29°52' W 090°01'2 2.1
2016-Apr-26 18:33N 29°50' W 090°03'0 0.0
2016-Apr-26 17:33N 29°50' W 090°03'1 0.6
2016-Apr-26 16:33N 29°51' W 090°02'0 0.0
2016-Apr-26 15:33N 29°51' W 090°02'0 0.0
2016-Apr-26 14:33N 29°51' W 090°02'0 0.0
2016-Apr-26 13:33N 29°51' W 090°02'0 0.0
2016-Apr-26 12:33N 29°51' W 090°02'0 0.0
2016-Apr-26 11:33N 29°51' W 090°02'2 2.0
2016-Apr-26 10:33N 29°52' W 090°01'2 1.5
2016-Apr-26 09:32N 29°53' W 089°60'2 2.1
2016-Apr-26 08:33N 29°55' W 089°58'1 0.6
2016-Apr-26 07:33N 29°55' W 089°58'1 1.1
2016-Apr-26 06:33N 29°56' W 089°59'0 0.0
2016-Apr-26 05:33N 29°56' W 089°59'0 0.0
2016-Apr-26 04:33N 29°56' W 089°59'0 0.0
2016-Apr-26 03:33N 29°56' W 089°59'0 0.0
2016-Apr-26 02:33N 29°56' W 089°59'0 0.0
2016-Apr-26 01:33N 29°56' W 089°59'4 3.5
2016-Apr-26 00:33N 29°57' W 090°02'6 5.5
2016-Apr-25 23:33N 29°55' W 090°08'3 2.1
2016-Apr-25 22:19N 29°56' W 090°11'0 0.2
2016-Apr-25 21:33N 29°56' W 090°11'1 0.0
2016-Apr-24 19:10N 29°56' W 090°12'2 3.7
2016-Apr-24 18:33N 29°57' W 090°10'2 1.9
2016-Apr-24 17:33N 29°55' W 090°08'4 3.6
2016-Apr-24 16:33N 29°55' W 090°04'3 3.0
2016-Apr-24 15:33N 29°57' W 090°01'2 2.2
2016-Apr-24 14:33N 29°56' W 089°59'1 1.0
2016-Apr-24 13:33N 29°55' W 089°58'1 1.4
2016-Apr-24 12:33N 29°54' W 089°60'2 2.0
2016-Apr-24 11:33N 29°52' W 090°01'1 0.1
2016-Apr-23 23:29N 29°51' W 090°01'0 0.0
2016-Apr-23 22:31N 29°51' W 090°01'0 0.0
2016-Apr-23 18:33N 29°51' W 090°01'3 3.0
2016-Apr-23 17:33N 29°49' W 090°04'4 3.1
2016-Apr-23 16:23N 29°46' W 090°05'3 3.1
2016-Apr-23 15:33N 29°45' W 090°08'17 3.4
2016-Apr-23 10:27N 29°34' W 090°23'2 1.4
2016-Apr-23 09:12N 29°33' W 090°25'3 2.1
2016-Apr-23 07:33N 29°34' W 090°29'4 4.4
2016-Apr-23 06:33N 29°34' W 090°34'3 3.2
2016-Apr-23 05:33N 29°35' W 090°37'4 3.9
2016-Apr-23 04:33N 29°37' W 090°41'3 2.6
2016-Apr-23 03:33N 29°34' W 090°43'3 2.6
2016-Apr-23 02:33N 29°33' W 090°45'3 3.2
2016-Apr-23 01:33N 29°32' W 090°49'5 5.0
2016-Apr-23 00:33N 29°33' W 090°55'100 2.9
2016-Apr-21 14:32N 29°58' W 092°46'5 4.5
2016-Apr-21 13:32N 29°57' W 092°51'4 4.3
2016-Apr-21 12:33N 29°56' W 092°56'4 4.1
2016-Apr-21 11:33N 29°56' W 093°00'4 3.9
2016-Apr-21 10:33N 29°56' W 093°05'3 2.6
2016-Apr-21 09:33N 29°56' W 093°08'4 3.5
2016-Apr-21 08:33N 29°58' W 093°11'3 3.4
2016-Apr-21 07:33N 30°01' W 093°14'3 2.6
2016-Apr-21 06:33N 30°03' W 093°16'3 2.9
2016-Apr-21 05:33N 30°05' W 093°17'1 0.7
2016-Apr-21 04:33N 30°06' W 093°18'1 0.5
2016-Apr-21 03:33N 30°06' W 093°18'0 0.0
2016-Apr-21 02:33N 30°06' W 093°18'0 0.0
2016-Apr-21 01:33N 30°06' W 093°18'0 0.0
2016-Apr-21 00:33N 30°06' W 093°18'0 0.1
2016-Apr-20 23:33N 30°06' W 093°18'3 3.4
2016-Apr-20 22:33N 30°04' W 093°21'0 0.2
2016-Apr-20 21:33N 30°04' W 093°21'0 0.0
2016-Apr-20 20:33N 30°04' W 093°21'0 0.2
2016-Apr-20 19:33N 30°04' W 093°21'0 0.3
2016-Apr-20 18:33N 30°04' W 093°21'0 0.1
2016-Apr-20 17:33N 30°04' W 093°21'2 1.5
2016-Apr-20 16:33N 30°04' W 093°23'5 4.9
2016-Apr-20 15:33N 30°04' W 093°29'5 4.7
2016-Apr-20 14:33N 30°04' W 093°34'5 4.8
2016-Apr-20 13:33N 30°04' W 093°40'5 4.4
2016-Apr-20 12:26N 30°01' W 093°45'5 4.9
2016-Apr-20 11:28N 29°59' W 093°49'12 6.1
2016-Apr-20 09:32N 29°49' W 093°58'5 3.8
2016-Apr-20 08:19N 29°47' W 094°02'3 4.1
2016-Apr-20 07:33N 29°45' W 094°05'5 4.2
2016-Apr-20 06:27N 29°42' W 094°09'  
Track history (hours):
 
Tides and Currents Weather Stations Pressure Air Temp Water Temp Dewpoint Dewpoint Depression Visibility Wind Speed Wind Dir Waves Ship Positions

Sea Drift

Owner: Marquette Transportation Company Gulf-Inland, LLC, Jefferson, LA. More information available from US FCC via Universal Licensing System and Coast Guard Vessel Documentation Center.

Last reported at 2016-Apr-30 01:31 UTC. Time now 2016-Apr-30 03:22 UTC.
Position N 29°45' W 095°06'.

Length 23 m; draft 3 m.

Type: Towing. MMSI: 366998080.

Date/timePositionNaut miles runAvg speedWind from/ knotsBaromVisibWave heightAir tempDewpointWater temp
2016-Apr-30 01:31N 29°45' W 095°06'4 4.4
2016-Apr-30 00:33N 29°44' W 095°01'6 5.8
2016-Apr-29 23:33N 29°39' W 094°58'6 6.0
2016-Apr-29 22:33N 29°33' W 094°55'7 6.9
2016-Apr-29 21:33N 29°27' W 094°51'65 4.5
2016-Apr-29 07:10N 30°00' W 093°46'3 5.7
2016-Apr-29 06:33N 30°03' W 093°43'13 4.4
2016-Apr-29 03:33N 30°04' W 093°28'4 4.4
2016-Apr-29 02:33N 30°04' W 093°23'2 1.6
2016-Apr-29 01:33N 30°04' W 093°21'0 0.2
2016-Apr-29 00:33N 30°04' W 093°22'3 3.3
2016-Apr-28 23:33N 30°06' W 093°19'3 2.7
2016-Apr-28 22:33N 30°04' W 093°16'0 0.0
2016-Apr-28 21:33N 30°04' W 093°16'1 1.1
2016-Apr-28 20:33N 30°03' W 093°16'4 4.2
2016-Apr-28 19:33N 29°60' W 093°13'4 3.6
2016-Apr-28 18:33N 29°57' W 093°11'5 4.8
2016-Apr-28 17:33N 29°56' W 093°05'16 4.9
2016-Apr-28 14:21N 29°58' W 092°47'4 4.6
2016-Apr-28 13:31N 29°57' W 092°43'102 3.8
2016-Apr-27 10:33N 29°32' W 090°49'0 0.3
2016-Apr-27 09:33N 29°32' W 090°49'3 3.1
2016-Apr-27 08:33N 29°33' W 090°45'4 3.7
2016-Apr-27 07:33N 29°36' W 090°43'3 3.1
2016-Apr-27 06:33N 29°36' W 090°39'4 4.5
2016-Apr-27 05:33N 29°34' W 090°34'5 4.8
2016-Apr-27 04:31N 29°34' W 090°29'25 3.5
2016-Apr-26 21:10N 29°47' W 090°04'3 4.4
2016-Apr-26 20:33N 29°50' W 090°03'3 2.9
2016-Apr-26 19:33N 29°52' W 090°01'2 2.1
2016-Apr-26 18:33N 29°50' W 090°03'0 0.0
2016-Apr-26 17:33N 29°50' W 090°03'1 0.6
2016-Apr-26 16:33N 29°51' W 090°02'0 0.0
2016-Apr-26 15:33N 29°51' W 090°02'0 0.0
2016-Apr-26 14:33N 29°51' W 090°02'0 0.0
2016-Apr-26 13:33N 29°51' W 090°02'0 0.0
2016-Apr-26 12:33N 29°51' W 090°02'0 0.0
2016-Apr-26 11:33N 29°51' W 090°02'2 2.0
2016-Apr-26 10:33N 29°52' W 090°01'2 1.5
2016-Apr-26 09:32N 29°53' W 089°60'2 2.1
2016-Apr-26 08:33N 29°55' W 089°58'1 0.6
2016-Apr-26 07:33N 29°55' W 089°58'1 1.1
2016-Apr-26 06:33N 29°56' W 089°59'0 0.0
2016-Apr-26 05:33N 29°56' W 089°59'0 0.0
2016-Apr-26 04:33N 29°56' W 089°59'0 0.0
2016-Apr-26 03:33N 29°56' W 089°59'0 0.0
2016-Apr-26 02:33N 29°56' W 089°59'0 0.0
2016-Apr-26 01:33N 29°56' W 089°59'4 3.5
2016-Apr-26 00:33N 29°57' W 090°02'6 5.5
2016-Apr-25 23:33N 29°55' W 090°08'3 2.1
2016-Apr-25 22:19N 29°56' W 090°11'0 0.2
2016-Apr-25 21:33N 29°56' W 090°11'1 0.0
2016-Apr-24 19:10N 29°56' W 090°12'2 3.7
2016-Apr-24 18:33N 29°57' W 090°10'2 1.9
2016-Apr-24 17:33N 29°55' W 090°08'4 3.6
2016-Apr-24 16:33N 29°55' W 090°04'3 3.0
2016-Apr-24 15:33N 29°57' W 090°01'2 2.2
2016-Apr-24 14:33N 29°56' W 089°59'1 1.0
2016-Apr-24 13:33N 29°55' W 089°58'1 1.4
2016-Apr-24 12:33N 29°54' W 089°60'2 2.0
2016-Apr-24 11:33N 29°52' W 090°01'1 0.1
2016-Apr-23 23:29N 29°51' W 090°01'0 0.0
2016-Apr-23 22:31N 29°51' W 090°01'0 0.0
2016-Apr-23 18:33N 29°51' W 090°01'3 3.0
2016-Apr-23 17:33N 29°49' W 090°04'4 3.1
2016-Apr-23 16:23N 29°46' W 090°05'3 3.1
2016-Apr-23 15:33N 29°45' W 090°08'17 3.4
2016-Apr-23 10:27N 29°34' W 090°23'2 1.4
2016-Apr-23 09:12N 29°33' W 090°25'3 2.1
2016-Apr-23 07:33N 29°34' W 090°29'4 4.4
2016-Apr-23 06:33N 29°34' W 090°34'3 3.2
2016-Apr-23 05:33N 29°35' W 090°37'4 3.9
2016-Apr-23 04:33N 29°37' W 090°41'3 2.6
2016-Apr-23 03:33N 29°34' W 090°43'3 2.6
2016-Apr-23 02:33N 29°33' W 090°45'3 3.2
2016-Apr-23 01:33N 29°32' W 090°49'5 5.0
2016-Apr-23 00:33N 29°33' W 090°55'100 2.9
2016-Apr-21 14:32N 29°58' W 092°46'5 4.5
2016-Apr-21 13:32N 29°57' W 092°51'4 4.3
2016-Apr-21 12:33N 29°56' W 092°56'4 4.1
2016-Apr-21 11:33N 29°56' W 093°00'4 3.9
2016-Apr-21 10:33N 29°56' W 093°05'3 2.6
2016-Apr-21 09:33N 29°56' W 093°08'4 3.5
2016-Apr-21 08:33N 29°58' W 093°11'3 3.4
2016-Apr-21 07:33N 30°01' W 093°14'3 2.6
2016-Apr-21 06:33N 30°03' W 093°16'3 2.9
2016-Apr-21 05:33N 30°05' W 093°17'1 0.7
2016-Apr-21 04:33N 30°06' W 093°18'1 0.5
2016-Apr-21 03:33N 30°06' W 093°18'0 0.0
2016-Apr-21 02:33N 30°06' W 093°18'0 0.0
2016-Apr-21 01:33N 30°06' W 093°18'0 0.0
2016-Apr-21 00:33N 30°06' W 093°18'0 0.1
2016-Apr-20 23:33N 30°06' W 093°18'3 3.4
2016-Apr-20 22:33N 30°04' W 093°21'0 0.2
2016-Apr-20 21:33N 30°04' W 093°21'0 0.0
2016-Apr-20 20:33N 30°04' W 093°21'0 0.2
2016-Apr-20 19:33N 30°04' W 093°21'0 0.3
2016-Apr-20 18:33N 30°04' W 093°21'0 0.1
2016-Apr-20 17:33N 30°04' W 093°21'2 1.5
2016-Apr-20 16:33N 30°04' W 093°23'5 4.9
2016-Apr-20 15:33N 30°04' W 093°29'5 4.7
2016-Apr-20 14:33N 30°04' W 093°34'5 4.8
2016-Apr-20 13:33N 30°04' W 093°40'5 4.4
2016-Apr-20 12:26N 30°01' W 093°45'5 4.9
2016-Apr-20 11:28N 29°59' W 093°49'12 6.1
2016-Apr-20 09:32N 29°49' W 093°58'5 3.8
2016-Apr-20 08:19N 29°47' W 094°02'3 4.1
2016-Apr-20 07:33N 29°45' W 094°05'5 4.2
2016-Apr-20 06:27N 29°42' W 094°09'  

Dump ship's entire track history